SJX870 RCTP-ROAH
Flight info
| Callsign | SJX870 |
|---|---|
| Flight time | 0h 53m |
| Altitude | 37000 |
| Route | KUDOS1A KUDOS R595 SEDKU Y573 MJC Y57 VELNO |
| Aircraft | A21N/M-SDE2E3FGHIRWXY/LB1 |
Departure
| Time | 2026-04-15 04:54 |
|---|---|
| Airport | Taiwan Taoyuan International Airport (RCTP) |
Arrival
| Time | 2026-04-15 05:47 |
|---|---|
| Airport | Naha International Airport (ROAH) |
| Time | Latitude | Longitude | Altitude | Speed | Heading |
|---|---|---|---|---|---|
| 2026-04-15 04:54 | 25.26049 | 121.46339 | 10930 ft | 367 kts | 57° |
| 2026-04-15 04:54 | 25.26989 | 121.48995 | 11588 ft | 376 kts | 79° |
| 2026-04-15 04:54 | 25.27038 | 121.51881 | 12345 ft | 378 kts | 100° |
| 2026-04-15 04:54 | 25.26364 | 121.54697 | 13095 ft | 380 kts | 110° |
| 2026-04-15 04:55 | 25.25443 | 121.57461 | 13849 ft | 384 kts | 112° |
| 2026-04-15 04:55 | 25.24498 | 121.60244 | 14477 ft | 389 kts | 112° |
| 2026-04-15 04:55 | 25.23598 | 121.63049 | 15122 ft | 394 kts | 110° |
| 2026-04-15 04:55 | 25.22721 | 121.65944 | 15799 ft | 399 kts | 110° |
| 2026-04-15 04:56 | 25.21857 | 121.68892 | 16323 ft | 406 kts | 110° |
| 2026-04-15 04:56 | 25.20996 | 121.71878 | 16938 ft | 410 kts | 109° |
| 2026-04-15 04:56 | 25.20130 | 121.74892 | 17541 ft | 415 kts | 109° |
| 2026-04-15 04:56 | 25.19251 | 121.77953 | 18079 ft | 420 kts | 110° |
| 2026-04-15 04:57 | 25.18372 | 121.81004 | 18569 ft | 423 kts | 110° |
| 2026-04-15 04:57 | 25.17476 | 121.84110 | 19080 ft | 426 kts | 110° |
| 2026-04-15 04:57 | 25.16569 | 121.87247 | 19593 ft | 429 kts | 110° |
| 2026-04-15 04:57 | 25.15655 | 121.90404 | 20091 ft | 433 kts | 110° |
| 2026-04-15 04:58 | 25.14735 | 121.93580 | 20598 ft | 436 kts | 110° |
| 2026-04-15 04:58 | 25.13809 | 121.96773 | 21096 ft | 439 kts | 109° |
| 2026-04-15 04:58 | 25.13087 | 122.00067 | 21588 ft | 444 kts | 100° |
| 2026-04-15 04:58 | 25.12746 | 122.03431 | 22062 ft | 448 kts | 96° |
| 2026-04-15 04:59 | 25.12461 | 122.06868 | 22539 ft | 451 kts | 96° |
| 2026-04-15 04:59 | 25.12172 | 122.10338 | 23015 ft | 455 kts | 96° |
| 2026-04-15 04:59 | 25.11883 | 122.13826 | 23489 ft | 458 kts | 96° |
| 2026-04-15 04:59 | 25.11590 | 122.17339 | 23863 ft | 462 kts | 96° |
| 2026-04-15 05:00 | 25.11293 | 122.20881 | 24240 ft | 465 kts | 96° |
| 2026-04-15 05:00 | 25.10993 | 122.24450 | 24608 ft | 469 kts | 96° |
| 2026-04-15 05:00 | 25.10689 | 122.28041 | 24973 ft | 472 kts | 96° |
| 2026-04-15 05:00 | 25.10372 | 122.31663 | 25334 ft | 475 kts | 97° |
| 2026-04-15 05:01 | 25.10022 | 122.35297 | 25690 ft | 478 kts | 97° |
| 2026-04-15 05:01 | 25.09662 | 122.38955 | 26037 ft | 481 kts | 97° |
| 2026-04-15 05:01 | 25.09305 | 122.42599 | 26376 ft | 485 kts | 97° |
| 2026-04-15 05:01 | 25.08944 | 122.46308 | 26709 ft | 488 kts | 97° |
| 2026-04-15 05:02 | 25.08583 | 122.50038 | 27027 ft | 491 kts | 97° |
| 2026-04-15 05:02 | 25.08219 | 122.53795 | 27351 ft | 494 kts | 97° |
| 2026-04-15 05:02 | 25.07851 | 122.57577 | 27660 ft | 497 kts | 97° |
| 2026-04-15 05:02 | 25.07482 | 122.61376 | 27972 ft | 500 kts | 97° |
| 2026-04-15 05:03 | 25.07109 | 122.65199 | 28271 ft | 503 kts | 97° |
| 2026-04-15 05:03 | 25.06729 | 122.69077 | 28575 ft | 506 kts | 97° |
| 2026-04-15 05:03 | 25.06352 | 122.72917 | 28861 ft | 508 kts | 97° |
| 2026-04-15 05:03 | 25.05970 | 122.76808 | 29146 ft | 511 kts | 97° |
| 2026-04-15 05:04 | 25.05584 | 122.80713 | 29424 ft | 514 kts | 97° |
| 2026-04-15 05:04 | 25.05196 | 122.84642 | 29712 ft | 516 kts | 97° |
| 2026-04-15 05:04 | 25.04804 | 122.88591 | 29990 ft | 519 kts | 97° |
| 2026-04-15 05:04 | 25.04410 | 122.92555 | 30252 ft | 521 kts | 97° |
| 2026-04-15 05:05 | 25.04013 | 122.96534 | 30530 ft | 522 kts | 97° |
| 2026-04-15 05:05 | 25.03619 | 123.00472 | 30802 ft | 524 kts | 97° |
| 2026-04-15 05:05 | 25.03220 | 123.04470 | 31087 ft | 525 kts | 97° |
| 2026-04-15 05:05 | 25.02819 | 123.08481 | 31436 ft | 524 kts | 97° |
| 2026-04-15 05:06 | 25.02419 | 123.12474 | 31782 ft | 523 kts | 97° |
| 2026-04-15 05:06 | 25.02019 | 123.16455 | 32141 ft | 523 kts | 97° |
| 2026-04-15 05:06 | 25.01617 | 123.20437 | 32497 ft | 522 kts | 98° |
| 2026-04-15 05:06 | 25.01214 | 123.24410 | 32844 ft | 521 kts | 98° |
| 2026-04-15 05:07 | 25.00816 | 123.28324 | 33176 ft | 520 kts | 98° |
| 2026-04-15 05:07 | 25.00412 | 123.32289 | 33505 ft | 519 kts | 98° |
| 2026-04-15 05:07 | 25.00008 | 123.36235 | 33822 ft | 518 kts | 98° |
| 2026-04-15 05:07 | 24.99604 | 123.40177 | 34102 ft | 517 kts | 98° |
| 2026-04-15 05:08 | 24.99199 | 123.44115 | 34355 ft | 516 kts | 98° |
| 2026-04-15 05:08 | 24.98793 | 123.48048 | 34592 ft | 516 kts | 98° |
| 2026-04-15 05:08 | 24.98387 | 123.51980 | 34820 ft | 516 kts | 98° |
| 2026-04-15 05:08 | 24.97980 | 123.55900 | 35051 ft | 515 kts | 98° |
| 2026-04-15 05:09 | 24.97573 | 123.59822 | 35278 ft | 515 kts | 98° |
| 2026-04-15 05:09 | 24.97164 | 123.63742 | 35504 ft | 514 kts | 98° |
| 2026-04-15 05:09 | 24.96755 | 123.67658 | 35733 ft | 514 kts | 98° |
| 2026-04-15 05:09 | 24.96345 | 123.71578 | 35959 ft | 514 kts | 98° |
| 2026-04-15 05:10 | 24.95934 | 123.75489 | 36183 ft | 513 kts | 98° |
| 2026-04-15 05:10 | 24.95523 | 123.79396 | 36404 ft | 513 kts | 98° |
| 2026-04-15 05:10 | 24.95111 | 123.83299 | 36621 ft | 513 kts | 98° |
| 2026-04-15 05:10 | 24.94703 | 123.87155 | 36829 ft | 512 kts | 98° |
| 2026-04-15 05:11 | 24.93874 | 123.94961 | 36926 ft | 511 kts | 98° |
| 2026-04-15 05:11 | 24.93038 | 124.02725 | 36929 ft | 511 kts | 99° |
| 2026-04-15 05:12 | 24.92277 | 124.09230 | 36929 ft | 510 kts | 99° |
| 2026-04-15 05:12 | 24.91208 | 124.18244 | 36931 ft | 510 kts | 99° |
| 2026-04-15 05:13 | 24.90294 | 124.25993 | 36926 ft | 510 kts | 99° |
| 2026-04-15 05:13 | 24.89533 | 124.32438 | 36928 ft | 510 kts | 99° |
| 2026-04-15 05:14 | 24.88615 | 124.40175 | 36927 ft | 509 kts | 99° |
| 2026-04-15 05:14 | 24.87693 | 124.47922 | 36925 ft | 509 kts | 99° |
| 2026-04-15 05:15 | 24.86773 | 124.55604 | 36919 ft | 509 kts | 99° |
| 2026-04-15 05:15 | 24.85847 | 124.63311 | 36918 ft | 509 kts | 99° |
| 2026-04-15 05:16 | 24.84910 | 124.71071 | 36920 ft | 509 kts | 99° |
| 2026-04-15 05:16 | 24.83973 | 124.78794 | 36923 ft | 509 kts | 99° |
| 2026-04-15 05:17 | 24.83032 | 124.86516 | 36921 ft | 508 kts | 99° |
| 2026-04-15 05:17 | 24.82094 | 124.94179 | 36919 ft | 508 kts | 99° |
| 2026-04-15 05:18 | 24.81145 | 125.01900 | 36914 ft | 508 kts | 99° |
| 2026-04-15 05:18 | 24.80127 | 125.09584 | 36893 ft | 505 kts | 106° |
| 2026-04-15 05:19 | 24.78982 | 125.17191 | 36905 ft | 503 kts | 104° |
| 2026-04-15 05:19 | 24.78143 | 125.24896 | 36918 ft | 510 kts | 95° |
| 2026-04-15 05:20 | 24.78942 | 125.32572 | 36913 ft | 509 kts | 76° |
| 2026-04-15 05:20 | 24.81718 | 125.39689 | 36914 ft | 505 kts | 57° |
| 2026-04-15 05:21 | 24.86033 | 125.45745 | 36919 ft | 503 kts | 50° |
| 2026-04-15 05:21 | 24.90238 | 125.51923 | 36916 ft | 504 kts | 50° |
| 2026-04-15 05:22 | 24.94236 | 125.58282 | 36914 ft | 504 kts | 51° |
| 2026-04-15 05:22 | 24.98027 | 125.64785 | 36916 ft | 505 kts | 53° |
| 2026-04-15 05:23 | 25.01705 | 125.71340 | 36913 ft | 505 kts | 54° |
| 2026-04-15 05:23 | 25.05390 | 125.77939 | 36914 ft | 506 kts | 54° |
| 2026-04-15 05:24 | 25.07229 | 125.81232 | 36809 ft | 504 kts | 54° |
| 2026-04-15 05:24 | 25.09066 | 125.84519 | 36383 ft | 502 kts | 54° |
| 2026-04-15 05:24 | 25.10902 | 125.87806 | 35768 ft | 503 kts | 54° |
| 2026-04-15 05:24 | 25.12737 | 125.91090 | 35097 ft | 504 kts | 54° |
| 2026-04-15 05:25 | 25.14580 | 125.94389 | 34396 ft | 505 kts | 54° |
| 2026-04-15 05:25 | 25.16426 | 125.97695 | 33675 ft | 506 kts | 55° |
| 2026-04-15 05:25 | 25.18273 | 126.01005 | 32913 ft | 506 kts | 54° |
| 2026-04-15 05:25 | 25.20096 | 126.04274 | 32176 ft | 506 kts | 54° |
| 2026-04-15 05:26 | 25.21966 | 126.07631 | 31420 ft | 507 kts | 54° |
| 2026-04-15 05:26 | 25.23792 | 126.10910 | 30690 ft | 507 kts | 54° |
| 2026-04-15 05:26 | 25.25641 | 126.14232 | 30025 ft | 506 kts | 54° |
| 2026-04-15 05:26 | 25.27474 | 126.17531 | 29396 ft | 501 kts | 54° |
| 2026-04-15 05:27 | 25.29288 | 126.20796 | 28810 ft | 495 kts | 54° |
| 2026-04-15 05:27 | 25.31081 | 126.24024 | 28231 ft | 490 kts | 54° |
| 2026-04-15 05:27 | 25.32854 | 126.27217 | 27651 ft | 485 kts | 55° |
| 2026-04-15 05:27 | 25.34608 | 126.30377 | 27103 ft | 480 kts | 55° |
| 2026-04-15 05:28 | 25.36344 | 126.33505 | 26551 ft | 475 kts | 55° |
| 2026-04-15 05:28 | 25.38045 | 126.36572 | 26016 ft | 470 kts | 55° |
| 2026-04-15 05:28 | 25.39746 | 126.39642 | 25494 ft | 466 kts | 55° |
| 2026-04-15 05:28 | 25.41429 | 126.42680 | 24974 ft | 461 kts | 55° |
| 2026-04-15 05:29 | 25.43098 | 126.45695 | 24469 ft | 457 kts | 55° |
| 2026-04-15 05:29 | 25.44755 | 126.48689 | 23972 ft | 452 kts | 55° |
| 2026-04-15 05:29 | 25.46393 | 126.51651 | 23472 ft | 448 kts | 55° |
| 2026-04-15 05:29 | 25.48011 | 126.54578 | 22908 ft | 444 kts | 56° |
| 2026-04-15 05:30 | 25.49609 | 126.57481 | 22344 ft | 439 kts | 56° |
| 2026-04-15 05:30 | 25.51191 | 126.60362 | 21794 ft | 435 kts | 56° |
| 2026-04-15 05:30 | 25.52733 | 126.63177 | 21253 ft | 431 kts | 56° |
| 2026-04-15 05:30 | 25.54283 | 126.66004 | 20720 ft | 427 kts | 56° |
| 2026-04-15 05:31 | 25.55815 | 126.68801 | 20199 ft | 423 kts | 56° |
| 2026-04-15 05:31 | 25.57336 | 126.71578 | 19690 ft | 419 kts | 56° |
| 2026-04-15 05:31 | 25.58842 | 126.74327 | 19179 ft | 415 kts | 56° |
| 2026-04-15 05:31 | 25.60331 | 126.77048 | 18680 ft | 411 kts | 56° |
| 2026-04-15 05:32 | 25.61808 | 126.79749 | 18195 ft | 408 kts | 56° |
| 2026-04-15 05:32 | 25.63269 | 126.82421 | 17574 ft | 402 kts | 56° |
| 2026-04-15 05:32 | 25.64707 | 126.85053 | 16786 ft | 397 kts | 56° |
| 2026-04-15 05:32 | 25.66110 | 126.87623 | 16028 ft | 392 kts | 56° |
| 2026-04-15 05:33 | 25.67514 | 126.90193 | 15330 ft | 389 kts | 57° |
| 2026-04-15 05:33 | 25.68909 | 126.92752 | 14853 ft | 385 kts | 57° |
| 2026-04-15 05:33 | 25.70289 | 126.95287 | 14371 ft | 382 kts | 57° |
| 2026-04-15 05:33 | 25.71655 | 126.97796 | 13907 ft | 378 kts | 57° |
| 2026-04-15 05:34 | 25.73013 | 127.00289 | 13394 ft | 375 kts | 57° |
| 2026-04-15 05:34 | 25.74359 | 127.02762 | 12864 ft | 373 kts | 57° |
| 2026-04-15 05:34 | 25.75695 | 127.05215 | 12346 ft | 370 kts | 57° |
| 2026-04-15 05:34 | 25.77018 | 127.07647 | 11839 ft | 367 kts | 57° |
| 2026-04-15 05:35 | 25.78317 | 127.10035 | 11343 ft | 365 kts | 57° |
| 2026-04-15 05:35 | 25.79625 | 127.12441 | 10847 ft | 363 kts | 57° |
| 2026-04-15 05:35 | 25.80922 | 127.14829 | 10455 ft | 358 kts | 57° |
| 2026-04-15 05:35 | 25.82181 | 127.17150 | 10315 ft | 344 kts | 57° |
| 2026-04-15 05:36 | 25.83389 | 127.19381 | 10199 ft | 331 kts | 57° |
| 2026-04-15 05:36 | 25.84551 | 127.21525 | 10083 ft | 318 kts | 57° |
| 2026-04-15 05:36 | 25.85678 | 127.23604 | 9812 ft | 312 kts | 56° |
| 2026-04-15 05:36 | 25.86792 | 127.25657 | 9418 ft | 309 kts | 56° |
| 2026-04-15 05:37 | 25.87902 | 127.27702 | 9025 ft | 307 kts | 57° |
| 2026-04-15 05:37 | 25.88998 | 127.29732 | 8634 ft | 305 kts | 58° |
| 2026-04-15 05:37 | 25.89865 | 127.31880 | 8264 ft | 305 kts | 70° |
| 2026-04-15 05:37 | 25.90408 | 127.34128 | 7903 ft | 303 kts | 75° |
| 2026-04-15 05:38 | 25.90926 | 127.36390 | 7525 ft | 302 kts | 75° |
| 2026-04-15 05:38 | 25.91451 | 127.38639 | 7160 ft | 300 kts | 75° |
| 2026-04-15 05:38 | 25.91974 | 127.40872 | 6799 ft | 297 kts | 74° |
| 2026-04-15 05:38 | 25.92493 | 127.43087 | 6454 ft | 295 kts | 75° |
| 2026-04-15 05:39 | 25.93009 | 127.45289 | 6103 ft | 293 kts | 75° |
| 2026-04-15 05:39 | 25.93519 | 127.47475 | 5719 ft | 291 kts | 75° |
| 2026-04-15 05:39 | 25.94024 | 127.49643 | 5372 ft | 289 kts | 75° |
| 2026-04-15 05:39 | 25.94527 | 127.51800 | 5005 ft | 288 kts | 74° |
| 2026-04-15 05:40 | 25.95025 | 127.53938 | 4668 ft | 286 kts | 74° |
| 2026-04-15 05:40 | 25.95522 | 127.56079 | 4299 ft | 284 kts | 74° |
| 2026-04-15 05:40 | 25.96008 | 127.58200 | 3964 ft | 282 kts | 77° |
| 2026-04-15 05:40 | 25.96052 | 127.60374 | 3539 ft | 284 kts | 97° |
| 2026-04-15 05:41 | 25.95854 | 127.62517 | 3244 ft | 279 kts | 93° |
| 2026-04-15 05:41 | 25.95790 | 127.64678 | 2840 ft | 279 kts | 89° |
| 2026-04-15 05:41 | 25.95900 | 127.66825 | 2490 ft | 277 kts | 78° |
| 2026-04-15 05:41 | 25.96699 | 127.68716 | 2151 ft | 269 kts | 44° |
| 2026-04-15 05:42 | 25.98261 | 127.69705 | 2032 ft | 262 kts | 7° |
| 2026-04-15 05:42 | 26.00017 | 127.69510 | 2016 ft | 247 kts | 335° |
| 2026-04-15 05:42 | 26.01526 | 127.68728 | 2005 ft | 231 kts | 331° |
| 2026-04-15 05:42 | 26.02916 | 127.67977 | 2001 ft | 214 kts | 332° |
| 2026-04-15 05:43 | 26.04217 | 127.67311 | 2009 ft | 198 kts | 332° |
| 2026-04-15 05:43 | 26.05424 | 127.66728 | 1999 ft | 179 kts | 333° |
| 2026-04-15 05:43 | 26.06516 | 127.66233 | 1996 ft | 160 kts | 334° |
| 2026-04-15 05:43 | 26.07495 | 127.65818 | 2004 ft | 138 kts | 334° |
| 2026-04-15 05:44 | 26.08377 | 127.65483 | 1891 ft | 136 kts | 338° |
| 2026-04-15 05:44 | 26.09304 | 127.65269 | 1717 ft | 136 kts | 346° |
| 2026-04-15 05:44 | 26.10248 | 127.65164 | 1540 ft | 136 kts | 350° |
| 2026-04-15 05:44 | 26.11196 | 127.65101 | 1361 ft | 137 kts | 352° |
| 2026-04-15 05:45 | 26.12147 | 127.65044 | 1184 ft | 137 kts | 352° |
| 2026-04-15 05:45 | 26.13101 | 127.64987 | 1001 ft | 138 kts | 352° |
| 2026-04-15 05:45 | 26.14068 | 127.64926 | 818 ft | 140 kts | 352° |
| 2026-04-15 05:45 | 26.15047 | 127.64863 | 631 ft | 140 kts | 353° |
| 2026-04-15 05:46 | 26.16004 | 127.64799 | 442 ft | 136 kts | 351° |
| 2026-04-15 05:46 | 26.16958 | 127.64732 | 327 ft | 138 kts | 352° |
| 2026-04-15 05:46 | 26.17917 | 127.64668 | 138 ft | 137 kts | 353° |
| 2026-04-15 05:46 | 26.18845 | 127.64623 | 22 ft | 128 kts | 353° |
| 2026-04-15 05:47 | 26.19560 | 127.64583 | 15 ft | 73 kts | 358° |
| 2026-04-15 05:47 | 26.19879 | 127.64575 | 15 ft | 26 kts | 357° |
| 2026-04-15 05:47 | 26.20065 | 127.64566 | 16 ft | 27 kts | 0° |
| 2026-04-15 05:47 | 26.20231 | 127.64594 | 17 ft | 24 kts | 18° |
| 2026-04-15 05:48 | 26.20368 | 127.64665 | 16 ft | 17 kts | 27° |
| 2026-04-15 05:48 | 26.20392 | 127.64678 | 16 ft | 0 kts | 27° |
| 2026-04-15 05:50 | 26.20430 | 127.64726 | 17 ft | 10 kts | 79° |
| 2026-04-15 05:51 | 26.20409 | 127.64760 | 18 ft | 6 kts | 147° |
| 2026-04-15 05:51 | 26.20389 | 127.64801 | 20 ft | 6 kts | 71° |
| 2026-04-15 05:51 | 26.20420 | 127.64840 | 20 ft | 8 kts | 46° |
| 2026-04-15 05:51 | 26.20439 | 127.64863 | 21 ft | 4 kts | 47° |
| 2026-04-15 05:52 | 26.20447 | 127.64873 | 21 ft | 0 kts | 47° |